Time;durP1;ratioP1;P1;durP2;ratioP2;P2;SDS_P1;SDS_P2;PMS_P1;PMS_P2;Temp;Humidity;BMP_temperature;BMP_pressure;BME280_temperature;BME280_humidity;BME280_pressure;Samples;Min_cycle;Max_cycle;Signal;HPM_P1;HPM_P2
2023/12/14 00:02:24;;;;;;;43.57;19.10;;;;;;;5.61;100.00;99896.94;5026853;28;20192;-74
2023/12/14 00:04:51;;;;;;;46.07;17.13;;;;;;;5.60;100.00;99905.09;5027977;28;20226;-74
2023/12/14 00:07:18;;;;;;;52.53;18.70;;;;;;;5.58;100.00;99908.00;5031307;28;20217;-73
2023/12/14 00:09:45;;;;;;;41.90;17.90;;;;;;;5.58;100.00;99902.78;5028082;28;20197;-74
2023/12/14 00:12:11;;;;;;;54.70;19.30;;;;;;;5.58;100.00;99904.63;5029898;28;20199;-75
2023/12/14 00:14:37;;;;;;;51.80;19.17;;;;;;;5.58;100.00;99907.22;5010658;28;20208;-74
2023/12/14 00:17:04;;;;;;;52.70;19.77;;;;;;;5.57;100.00;99911.72;5021213;28;20212;-75
2023/12/14 00:19:31;;;;;;;49.30;20.10;;;;;;;5.57;100.00;99919.56;5025029;28;20223;-75
2023/12/14 00:21:57;;;;;;;47.20;18.40;;;;;;;5.56;100.00;99927.72;5032198;28;20207;-75
2023/12/14 00:24:25;;;;;;;49.20;17.77;;;;;;;5.55;100.00;99929.56;5006777;28;20574;-74
2023/12/14 00:26:51;;;;;;;42.80;17.60;;;;;;;5.54;100.00;99928.03;5021172;28;20694;-73
2023/12/14 00:29:17;;;;;;;43.27;17.73;;;;;;;5.55;100.00;99929.56;5022032;28;20721;-73
2023/12/14 00:31:44;;;;;;;40.80;18.07;;;;;;;5.56;100.00;99930.34;5024731;28;20207;-74
2023/12/14 00:34:10;;;;;;;42.23;17.40;;;;;;;5.56;100.00;99932.97;5027126;28;20204;-74
2023/12/14 00:36:36;;;;;;;41.80;16.93;;;;;;;5.55;100.00;99940.03;5006055;28;20680;-74
2023/12/14 00:39:03;;;;;;;46.67;17.87;;;;;;;5.55;100.00;99941.91;5022836;28;20228;-74
2023/12/14 00:41:31;;;;;;;43.73;18.40;;;;;;;5.55;100.00;99941.91;5025206;28;20196;-74
2023/12/14 00:43:57;;;;;;;46.67;17.93;;;;;;;5.55;100.00;99947.13;5028654;28;20219;-73
2023/12/14 00:46:23;;;;;;;42.70;17.70;;;;;;;5.54;100.00;99946.34;5027153;28;20532;-74
2023/12/14 00:48:50;;;;;;;46.37;17.87;;;;;;;5.55;100.00;99950.50;5021005;28;20306;-75
2023/12/14 00:51:16;;;;;;;46.97;18.43;;;;;;;5.53;100.00;99960.53;5021544;28;20196;-74
2023/12/14 00:53:43;;;;;;;48.63;18.37;;;;;;;5.55;100.00;99960.97;5026622;28;20698;-73
2023/12/14 00:56:10;;;;;;;48.40;18.47;;;;;;;5.54;100.00;99961.31;5028394;28;20202;-74
2023/12/14 00:58:37;;;;;;;46.37;18.87;;;;;;;5.55;100.00;99968.84;5033818;28;20227;-73
2023/12/14 01:01:04;;;;;;;49.47;19.37;;;;;;;5.54;100.00;99966.56;5018237;28;20212;-73
2023/12/14 01:03:30;;;;;;;50.03;19.13;;;;;;;5.55;100.00;99970.72;5034423;28;20611;-73
2023/12/14 01:05:57;;;;;;;52.57;20.33;;;;;;;5.54;100.00;99983.03;5039769;28;20200;-74
2023/12/14 01:08:24;;;;;;;53.40;20.40;;;;;;;5.55;100.00;99984.56;5020280;28;20262;-73
2023/12/14 01:10:50;;;;;;;52.97;20.37;;;;;;;5.55;100.00;99989.78;5040600;28;20242;-73
2023/12/14 01:13:16;;;;;;;55.87;19.93;;;;;;;5.55;100.00;99995.03;5038051;28;20207;-75
2023/12/14 01:15:44;;;;;;;55.23;19.97;;;;;;;5.56;100.00;99996.59;5032859;28;20209;-74
2023/12/14 01:18:10;;;;;;;57.87;20.53;;;;;;;5.56;100.00;100004.44;5034661;28;20247;-74
2023/12/14 01:20:38;;;;;;;61.30;20.87;;;;;;;5.57;100.00;100002.59;5023523;28;20223;-74
2023/12/14 01:23:04;;;;;;;59.67;22.07;;;;;;;5.56;100.00;100007.06;5030322;28;20200;-74
2023/12/14 01:25:30;;;;;;;55.97;20.80;;;;;;;5.56;100.00;100004.44;5036299;28;20195;-73
2023/12/14 01:27:57;;;;;;;61.83;21.30;;;;;;;5.56;100.00;100001.06;5033167;28;20224;-73
2023/12/14 01:30:23;;;;;;;59.23;21.47;;;;;;;5.56;100.00;100009.69;5037687;28;20231;-74
2023/12/14 01:32:51;;;;;;;63.67;20.63;;;;;;;5.57;100.00;100005.19;5038087;28;20200;-75
2023/12/14 01:35:18;;;;;;;69.57;22.30;;;;;;;5.57;100.00;100005.19;5034979;28;20223;-75
2023/12/14 01:37:45;;;;;;;63.53;21.53;;;;;;;5.57;100.00;100007.81;5037580;28;20262;-74
2023/12/14 01:40:13;;;;;;;66.73;21.17;;;;;;;5.57;100.00;100013.06;5020296;28;20611;-73
2023/12/14 01:42:39;;;;;;;67.37;21.60;;;;;;;5.58;100.00;100014.59;5022709;28;20231;-74
2023/12/14 01:45:06;;;;;;;81.80;21.33;;;;;;;5.58;100.00;100009.34;5018867;28;20211;-73
2023/12/14 01:47:33;;;;;;;102.40;23.70;;;;;;;5.57;100.00;100008.59;5020346;28;20678;-74
2023/12/14 01:50:00;;;;;;;93.00;22.60;;;;;;;5.57;100.00;100008.59;5025877;28;20196;-74
2023/12/14 01:52:27;;;;;;;83.17;23.17;;;;;;;5.58;100.00;100007.53;5024605;28;20199;-74
2023/12/14 01:54:55;;;;;;;88.30;22.30;;;;;;;5.58;100.00;100012.75;5024743;28;20196;-73
2023/12/14 01:57:21;;;;;;;84.23;21.93;;;;;;;5.61;100.00;100014.00;5022829;28;20225;-74
2023/12/14 01:59:48;;;;;;;76.90;20.63;;;;;;;5.58;100.00;100020.63;5021598;28;20256;-73
2023/12/14 02:02:14;;;;;;;80.67;20.87;;;;;;;5.59;100.00;100010.94;5022801;28;20208;-74
2023/12/14 02:04:41;;;;;;;82.97;21.70;;;;;;;5.59;100.00;100024.03;5023816;28;20210;-74
2023/12/14 02:07:08;;;;;;;73.10;20.87;;;;;;;5.58;100.00;100023.25;5030235;28;20188;-74
2023/12/14 02:09:35;;;;;;;67.27;21.43;;;;;;;5.58;100.00;100023.25;5026110;28;20226;-75
2023/12/14 02:12:01;;;;;;;76.07;21.47;;;;;;;5.58;100.00;100031.09;5018968;28;20196;-74
2023/12/14 02:14:28;;;;;;;72.80;21.03;;;;;;;5.58;100.00;100032.94;5023172;28;20220;-74
2023/12/14 02:16:54;;;;;;;68.30;20.97;;;;;;;5.57;100.00;100034.78;5026192;28;20437;-74
2023/12/14 02:19:20;;;;;;;77.97;21.30;;;;;;;5.56;100.00;100038.50;5027544;28;20725;-73
2023/12/14 02:21:47;;;;;;;64.97;19.73;;;;;;;5.56;100.00;100043.72;5020916;28;20227;-74
2023/12/14 02:24:14;;;;;;;76.07;22.43;;;;;;;5.57;100.00;100045.28;5022520;28;20200;-73
2023/12/14 02:26:41;;;;;;;67.80;19.97;;;;;;;5.57;100.00;100047.88;5021753;28;20205;-74
2023/12/14 02:29:07;;;;;;;74.93;22.57;;;;;;;5.57;100.00;100053.13;5021445;28;20219;-73
2023/12/14 02:31:33;;;;;;;70.20;20.77;;;;;;;5.58;100.00;100046.03;5021114;28;20196;-73
2023/12/14 02:34:00;;;;;;;67.30;21.80;;;;;;;5.59;100.00;100053.59;5018957;28;20196;-74
2023/12/14 02:36:26;;;;;;;69.27;21.63;;;;;;;5.59;100.00;100060.69;5021216;28;20564;-73
2023/12/14 02:38:52;;;;;;;69.67;22.27;;;;;;;5.59;100.00;100058.06;5024325;28;20749;-73
2023/12/14 02:41:20;;;;;;;67.57;20.70;;;;;;;5.59;100.00;100064.06;5022310;28;20448;-72
2023/12/14 02:43:46;;;;;;;60.33;20.80;;;;;;;5.59;100.00;100064.06;5021088;28;20200;-75
2023/12/14 02:46:15;;;;;;;70.53;20.70;;;;;;;5.60;100.00;100070.06;5006727;28;20292;-73
2023/12/14 02:48:42;;;;;;;59.63;19.93;;;;;;;5.59;100.00;100064.06;5021237;28;20238;-75
2023/12/14 02:51:12;;;;;;;58.10;19.43;;;;;;;5.61;100.00;100072.41;5004701;28;20196;-73
2023/12/14 02:53:38;;;;;;;64.10;21.53;;;;;;;5.62;100.00;100078.38;5018355;28;20559;-74
2023/12/14 02:56:05;;;;;;;72.70;20.93;;;;;;;5.61;100.00;100069.78;4999931;28;20208;-75
2023/12/14 02:58:33;;;;;;;63.67;22.00;;;;;;;5.62;100.00;100075.78;5015931;28;20221;-75
2023/12/14 03:00:59;;;;;;;72.73;22.17;;;;;;;5.63;100.00;100072.84;5023949;28;20205;-75
2023/12/14 03:03:26;;;;;;;65.27;22.47;;;;;;;5.61;100.00;100077.63;5022724;28;20200;-75
2023/12/14 03:05:52;;;;;;;75.83;21.70;;;;;;;5.62;100.00;100081.78;5009617;28;20200;-74
2023/12/14 03:08:18;;;;;;;69.40;21.90;;;;;;;5.63;100.00;100072.06;5021586;28;20245;-74
2023/12/14 03:10:45;;;;;;;83.03;23.17;;;;;;;5.63;100.00;100079.94;5018488;28;20204;-74
2023/12/14 03:13:11;;;;;;;74.10;22.30;;;;;;;5.64;100.00;100086.72;5022949;28;20207;-74
2023/12/14 03:15:39;;;;;;;82.43;22.53;;;;;;;5.62;100.00;100088.88;5024040;28;20200;-75
2023/12/14 03:18:05;;;;;;;89.77;23.07;;;;;;;5.63;100.00;100088.56;5017608;28;20216;-75
2023/12/14 03:20:31;;;;;;;78.90;22.63;;;;;;;5.63;100.00;100085.94;5020293;28;20193;-75
2023/12/14 03:22:57;;;;;;;87.63;23.73;;;;;;;5.63;100.00;100090.41;5023948;28;20196;-75
2023/12/14 03:25:24;;;;;;;81.50;21.80;;;;;;;5.63;100.00;100088.56;5025513;28;20221;-75
2023/12/14 03:27:50;;;;;;;96.63;23.80;;;;;;;5.63;100.00;100100.88;5023219;28;20224;-74
2023/12/14 03:30:16;;;;;;;94.10;23.23;;;;;;;5.64;100.00;100102.44;5021566;28;20200;-75
2023/12/14 03:32:44;;;;;;;102.27;24.00;;;;;;;5.63;100.00;100098.25;5022712;28;20200;-74
2023/12/14 03:35:11;;;;;;;107.87;24.90;;;;;;;5.63;100.00;100106.13;5021494;28;20211;-75
2023/12/14 03:37:37;;;;;;;88.97;23.40;;;;;;;5.62;100.00;100112.44;5021964;28;20234;-74
2023/12/14 03:40:04;;;;;;;82.50;23.77;;;;;;;5.62;100.00;100115.84;5023278;28;20226;-74
2023/12/14 03:42:31;;;;;;;97.10;22.37;;;;;;;5.63;100.00;100117.38;5008905;28;20207;-76
2023/12/14 03:44:57;;;;;;;96.63;23.27;;;;;;;5.63;100.00;100113.97;5006059;28;20200;-72
2023/12/14 03:47:23;;;;;;;113.57;23.37;;;;;;;5.63;100.00;100117.38;5020936;28;20202;-75
2023/12/14 03:49:51;;;;;;;107.43;24.73;;;;;;;5.63;100.00;100129.69;5023297;28;20220;-75
2023/12/14 03:52:17;;;;;;;75.30;21.13;;;;;;;5.63;100.00;100125.22;5018281;28;20204;-77
2023/12/14 03:54:44;;;;;;;93.57;23.17;;;;;;;5.63;100.00;100135.72;5022654;28;20215;-75
2023/12/14 03:57:10;;;;;;;84.47;22.37;;;;;;;5.64;100.00;100141.72;5019032;28;20196;-75
2023/12/14 03:59:39;;;;;;;79.57;21.50;;;;;;;5.64;100.00;100146.97;5019888;28;20222;-75
2023/12/14 04:02:06;;;;;;;67.90;22.30;;;;;;;5.64;100.00;100154.84;5018900;28;20208;-75
2023/12/14 04:04:32;;;;;;;69.10;21.33;;;;;;;5.64;100.00;100154.84;5021032;28;20196;-74
2023/12/14 04:07:00;;;;;;;57.10;19.90;;;;;;;5.65;100.00;100156.38;5021437;28;20749;-75
2023/12/14 04:09:26;;;;;;;59.97;19.80;;;;;;;5.64;100.00;100160.06;5019569;28;20235;-75
2023/12/14 04:11:53;;;;;;;54.00;19.63;;;;;;;5.63;100.00;100167.13;5007868;28;20211;-75
2023/12/14 04:14:19;;;;;;;55.97;19.03;;;;;;;5.64;100.00;100157.44;5024976;28;20203;-75
2023/12/14 04:16:45;;;;;;;50.17;19.17;;;;;;;5.63;100.00;100161.91;5018438;28;20584;-75
2023/12/14 04:19:12;;;;;;;58.00;19.03;;;;;;;5.63;100.00;100156.66;5014243;28;20703;-72
2023/12/14 04:21:38;;;;;;;52.77;18.70;;;;;;;5.63;100.00;100167.13;5020961;28;20201;-73
2023/12/14 04:24:06;;;;;;;55.17;19.87;;;;;;;5.62;100.00;100170.84;5019734;28;20505;-74
2023/12/14 04:26:33;;;;;;;49.00;20.20;;;;;;;5.63;100.00;100172.38;5007964;28;20583;-74
2023/12/14 04:28:59;;;;;;;55.27;21.03;;;;;;;5.61;100.00;100177.16;5026978;28;20223;-75
2023/12/14 04:31:26;;;;;;;59.97;20.80;;;;;;;5.62;100.00;100183.94;5025751;28;20203;-75
2023/12/14 04:33:52;;;;;;;58.73;20.47;;;;;;;5.62;100.00;100183.16;5022768;28;20196;-74
2023/12/14 04:36:18;;;;;;;56.77;20.90;;;;;;;5.62;100.00;100188.38;5025298;28;20195;-74
2023/12/14 04:38:46;;;;;;;53.53;20.43;;;;;;;5.62;100.00;100193.63;5021248;28;20217;-74
2023/12/14 04:41:14;;;;;;;68.33;22.27;;;;;;;5.63;100.00;100200.41;5022448;28;20258;-75
2023/12/14 04:43:40;;;;;;;59.33;21.73;;;;;;;5.62;100.00;100198.88;5019850;28;20570;-75
2023/12/14 04:46:09;;;;;;;61.67;22.50;;;;;;;5.61;100.00;100200.72;5025000;28;20207;-75
2023/12/14 04:48:37;;;;;;;57.77;21.33;;;;;;;5.61;100.00;100202.56;5026949;28;20645;-74
2023/12/14 04:51:03;;;;;;;58.53;21.20;;;;;;;5.60;100.00;100206.25;5024250;28;20192;-75
2023/12/14 04:53:30;;;;;;;52.80;20.50;;;;;;;5.59;100.00;100208.09;5025227;28;20563;-75
2023/12/14 04:55:56;;;;;;;53.33;19.93;;;;;;;5.59;100.00;100215.94;5024445;28;20536;-74
2023/12/14 04:58:24;;;;;;;61.93;21.33;;;;;;;5.59;100.00;100212.56;5020795;28;20607;-74
2023/12/14 05:00:50;;;;;;;65.33;20.97;;;;;;;5.60;100.00;100219.34;5023034;28;20595;-75
2023/12/14 05:03:16;;;;;;;61.37;21.97;;;;;;;5.60;100.00;100227.22;5022955;28;20600;-75
2023/12/14 05:05:43;;;;;;;65.20;21.00;;;;;;;5.60;100.00;100232.44;5023928;28;20663;-73
2023/12/14 05:08:09;;;;;;;56.57;21.20;;;;;;;5.59;100.00;100226.44;5023942;28;20223;-74
2023/12/14 05:10:35;;;;;;;68.97;22.60;;;;;;;5.59;100.00;100231.66;5008290;28;20700;-75
2023/12/14 05:13:01;;;;;;;63.30;21.47;;;;;;;5.58;100.00;100237.97;5022867;28;20207;-73
2023/12/14 05:15:29;;;;;;;59.57;22.70;;;;;;;5.57;100.00;100241.69;5000804;28;20212;-74
2023/12/14 05:17:55;;;;;;;64.93;23.07;;;;;;;5.59;100.00;100244.00;5019915;28;20238;-73
2023/12/14 05:20:21;;;;;;;64.43;22.67;;;;;;;5.58;100.00;100252.91;5022197;28;20595;-75
2023/12/14 05:22:48;;;;;;;74.13;24.77;;;;;;;5.57;100.00;100254.00;5021964;28;20199;-74
2023/12/14 05:25:14;;;;;;;73.17;23.20;;;;;;;5.58;100.00;100263.38;5021150;28;20682;-74
2023/12/14 05:27:41;;;;;;;64.73;22.77;;;;;;;5.57;100.00;100264.47;5018027;28;20216;-74
2023/12/14 05:30:08;;;;;;;74.30;24.97;;;;;;;5.56;100.00;100268.16;5018695;28;20212;-75
2023/12/14 05:32:36;;;;;;;67.30;22.70;;;;;;;5.54;100.00;100271.06;5020058;28;20568;-74
2023/12/14 05:35:02;;;;;;;67.03;22.87;;;;;;;5.54;100.00;100278.94;5018393;28;20660;-73
2023/12/14 05:37:29;;;;;;;68.47;22.93;;;;;;;5.55;100.00;100284.94;5026533;28;20654;-74
2023/12/14 05:39:55;;;;;;;61.53;22.57;;;;;;;5.52;100.00;100290.78;5025468;28;20672;-74
2023/12/14 05:42:21;;;;;;;67.03;23.33;;;;;;;5.52;100.00;100290.78;5021958;28;20222;-75
2023/12/14 05:44:48;;;;;;;76.67;23.33;;;;;;;5.52;100.00;100294.19;5021804;28;20257;-74
2023/12/14 05:47:14;;;;;;;62.93;22.17;;;;;;;5.52;100.00;100301.25;5021538;28;20683;-75
2023/12/14 05:49:43;;;;;;;61.00;21.43;;;;;;;5.52;100.00;100303.88;5020500;28;20834;-75
2023/12/14 05:52:09;;;;;;;67.60;22.40;;;;;;;5.51;100.00;100308.34;5025800;28;20730;-75
2023/12/14 05:54:37;;;;;;;59.13;20.17;;;;;;;5.49;100.00;100317.56;5024979;28;20219;-75
2023/12/14 05:57:03;;;;;;;61.00;21.13;;;;;;;5.50;100.00;100324.34;5020044;28;20216;-74
2023/12/14 05:59:30;;;;;;;58.23;20.33;;;;;;;5.49;100.00;100328.81;5020722;28;20224;-75
2023/12/14 06:01:57;;;;;;;52.63;20.23;;;;;;;5.48;100.00;100329.88;5017309;28;20193;-74
2023/12/14 06:04:24;;;;;;;53.17;19.57;;;;;;;5.46;100.00;100339.88;5018656;28;20221;-75
2023/12/14 06:06:51;;;;;;;45.53;18.20;;;;;;;5.47;100.00;100341.44;5018105;28;20199;-73
2023/12/14 06:09:19;;;;;;;49.33;18.20;;;;;;;5.47;100.00;100344.06;5016164;28;20219;-75
2023/12/14 06:11:45;;;;;;;45.20;18.57;;;;;;;5.46;100.00;100347.75;5019661;28;21471;-74
2023/12/14 06:14:11;;;;;;;46.97;18.60;;;;;;;5.45;100.00;100346.16;5019845;28;20202;-75
2023/12/14 06:16:38;;;;;;;36.67;17.73;;;;;;;5.45;100.00;100346.16;5006220;28;20200;-75
2023/12/14 06:19:04;;;;;;;42.43;17.40;;;;;;;5.43;100.00;100353.56;5023038;28;20238;-74
2023/12/14 06:21:30;;;;;;;43.67;18.53;;;;;;;5.43;100.00;100363.25;5026930;28;20208;-74
2023/12/14 06:23:59;;;;;;;35.77;15.10;;;;;;;5.41;100.00;100365.41;5024617;28;20219;-75
2023/12/14 06:26:25;;;;;;;37.10;16.03;;;;;;;5.40;100.00;100377.75;5003695;28;20295;-74
2023/12/14 06:28:52;;;;;;;36.33;15.00;;;;;;;5.37;100.00;100373.06;5020726;28;20212;-74
2023/12/14 06:31:21;;;;;;;36.50;15.23;;;;;;;5.36;100.00;100383.84;5019513;28;20203;-75
2023/12/14 06:33:47;;;;;;;32.03;14.67;;;;;;;5.33;100.00;100382.59;5023084;28;20196;-75
2023/12/14 06:36:14;;;;;;;36.27;16.23;;;;;;;5.30;100.00;100374.56;5021382;28;20196;-75
2023/12/14 06:38:40;;;;;;;34.40;14.97;;;;;;;5.27;100.00;100375.13;5001530;28;20426;-74
2023/12/14 06:41:08;;;;;;;34.60;14.07;;;;;;;5.26;100.00;100386.69;5025773;28;20261;-74
2023/12/14 06:43:35;;;;;;;35.20;15.17;;;;;;;5.24;100.00;100391.44;5017580;28;20224;-74
2023/12/14 06:46:01;;;;;;;39.30;15.80;;;;;;;5.23;100.00;100402.97;5020658;28;20192;-75
2023/12/14 06:48:27;;;;;;;33.70;13.63;;;;;;;5.21;100.00;100410.34;5025429;28;20295;-74
2023/12/14 06:50:54;;;;;;;35.97;14.10;;;;;;;5.20;100.00;100417.44;5025959;28;20207;-74
2023/12/14 06:53:21;;;;;;;33.03;15.07;;;;;;;5.16;100.00;100419.09;5020437;28;20674;-75
2023/12/14 06:55:47;;;;;;;37.27;15.83;;;;;;;5.17;100.00;100422.47;5026213;28;20735;-74
2023/12/14 06:58:15;;;;;;;41.67;15.17;;;;;;;5.15;100.00;100419.38;5026249;28;20713;-73
2023/12/14 07:00:41;;;;;;;40.27;15.97;;;;;;;5.15;100.00;100429.84;5023027;28;20246;-74
2023/12/14 07:03:08;;;;;;;42.53;16.10;;;;;;;5.10;100.00;100435.97;5003054;28;20296;-74
2023/12/14 07:05:34;;;;;;;40.30;16.67;;;;;;;5.06;100.00;100437.59;5023875;28;20576;-73
2023/12/14 07:08:00;;;;;;;43.43;15.60;;;;;;;5.04;100.00;100449.44;5027502;28;20220;-74
2023/12/14 07:10:27;;;;;;;39.93;16.83;;;;;;;5.02;100.00;100449.72;5024707;28;20223;-72
2023/12/14 07:12:53;;;;;;;35.93;16.77;;;;;;;5.01;100.00;100460.47;5019495;28;20203;-74
2023/12/14 07:15:21;;;;;;;40.77;15.47;;;;;;;5.01;100.00;100455.22;5022432;28;20196;-72
2023/12/14 07:17:47;;;;;;;47.33;17.33;;;;;;;5.00;100.00;100461.53;5006667;28;20244;-73
2023/12/14 07:20:14;;;;;;;39.67;16.60;;;;;;;4.97;100.00;100470.75;5024985;28;20717;-73
2023/12/14 07:22:40;;;;;;;43.40;17.67;;;;;;;4.97;100.00;100475.97;5022622;28;20282;-75
2023/12/14 07:25:07;;;;;;;59.43;22.27;;;;;;;4.95;100.00;100478.13;5025433;28;20200;-74
2023/12/14 07:27:34;;;;;;;55.33;21.23;;;;;;;4.94;100.00;100487.03;5023468;28;20208;-74
2023/12/14 07:30:00;;;;;;;62.93;21.77;;;;;;;4.93;100.00;100490.69;5023092;28;20777;-74
2023/12/14 07:32:28;;;;;;;55.13;19.70;;;;;;;4.92;100.00;100496.25;5024966;28;20204;-74
2023/12/14 07:34:54;;;;;;;57.17;19.10;;;;;;;4.89;100.00;100491.56;5022080;28;20206;-75
2023/12/14 07:37:21;;;;;;;58.00;20.70;;;;;;;4.88;100.00;100500.50;5023786;28;20318;-74
2023/12/14 07:39:47;;;;;;;68.67;21.23;;;;;;;4.87;100.00;100509.41;5027035;28;20199;-75
2023/12/14 07:42:19;;;;;;;63.77;21.10;;;;;;;4.86;100.00;100508.63;5026966;28;20200;-75
2023/12/14 07:44:45;;;;;;;56.53;19.70;;;;;;;4.85;100.00;100504.47;5028148;28;20559;-74
2023/12/14 07:47:11;;;;;;;60.10;20.13;;;;;;;4.86;100.00;100510.44;5026176;28;20203;-73
2023/12/14 07:49:39;;;;;;;59.07;19.60;;;;;;;4.83;100.00;100513.66;5022894;28;20208;-75
2023/12/14 07:52:06;;;;;;;52.87;18.73;;;;;;;4.81;100.00;100511.31;5003063;28;20210;-74
2023/12/14 07:54:33;;;;;;;50.00;18.20;;;;;;;4.82;100.00;100525.94;5026755;28;20707;-73
2023/12/14 07:56:59;;;;;;;55.90;18.37;;;;;;;4.82;100.00;100527.81;5028768;28;20193;-74
2023/12/14 07:59:25;;;;;;;50.47;17.73;;;;;;;4.80;100.00;100528.09;5025237;28;20218;-73
2023/12/14 08:01:52;;;;;;;46.27;19.07;;;;;;;4.80;100.00;100522.06;5021522;28;20201;-74
2023/12/14 08:04:18;;;;;;;53.47;19.03;;;;;;;4.82;100.00;100530.44;5024921;28;20206;-74
2023/12/14 08:06:46;;;;;;;45.77;16.73;;;;;;;4.81;100.00;100536.72;5032369;28;20200;-73
2023/12/14 08:09:12;;;;;;;53.10;19.30;;;;;;;4.81;100.00;100545.34;5007001;28;20220;-74
2023/12/14 08:11:38;;;;;;;52.57;19.47;;;;;;;4.80;100.00;100556.88;5030431;28;20204;-74
2023/12/14 08:14:05;;;;;;;43.30;18.03;;;;;;;4.82;100.00;100559.19;5027195;28;20201;-74
2023/12/14 08:16:31;;;;;;;52.77;19.20;;;;;;;4.82;100.00;100565.19;5023600;28;20206;-73
2023/12/14 08:18:58;;;;;;;41.70;16.60;;;;;;;4.84;100.00;100578.00;5025417;28;20228;-75
2023/12/14 08:21:24;;;;;;;52.17;18.33;;;;;;;4.85;100.00;100576.91;5026049;28;20228;-74
2023/12/14 08:23:52;;;;;;;46.57;16.97;;;;;;;4.86;100.00;100576.66;5027777;28;20205;-72
2023/12/14 08:26:18;;;;;;;48.07;17.80;;;;;;;4.89;100.00;100583.13;5026799;28;20200;-71
2023/12/14 08:28:44;;;;;;;45.83;17.37;;;;;;;4.89;100.00;100593.59;5028107;28;20222;-74
2023/12/14 08:31:12;;;;;;;43.17;16.83;;;;;;;4.90;100.00;100595.94;5012680;28;20216;-73
2023/12/14 08:33:38;;;;;;;44.47;18.00;;;;;;;4.92;100.00;100600.91;5029750;28;20737;-73
2023/12/14 08:36:05;;;;;;;41.93;15.97;;;;;;;4.92;100.00;100601.66;5015358;28;20616;-73
2023/12/14 08:38:32;;;;;;;38.63;16.83;;;;;;;4.92;100.00;100609.50;5028514;28;20634;-73
2023/12/14 08:41:00;;;;;;;48.93;18.20;;;;;;;4.94;100.00;100609.22;5031000;28;20246;-73
2023/12/14 08:43:27;;;;;;;46.77;17.03;;;;;;;4.95;100.00;100616.00;5011892;28;20594;-73
2023/12/14 08:45:53;;;;;;;47.70;18.33;;;;;;;4.94;100.00;100622.31;5030857;28;20238;-73
2023/12/14 08:48:19;;;;;;;48.23;20.40;;;;;;;4.95;100.00;100629.09;5033764;28;20223;-74
2023/12/14 08:50:46;;;;;;;45.97;19.77;;;;;;;4.95;100.00;100635.09;5047735;28;20345;-71
2023/12/14 08:53:12;;;;;;;44.57;16.23;;;;;;;4.97;100.00;100640.06;5048035;28;20226;-74
2023/12/14 08:55:39;;;;;;;45.73;16.60;;;;;;;4.97;100.00;100645.28;5051553;28;20264;-72
2023/12/14 08:58:06;;;;;;;44.40;17.60;;;;;;;4.98;100.00;100652.06;5041079;28;20587;-74
2023/12/14 09:00:33;;;;;;;45.03;16.17;;;;;;;4.99;100.00;100656.25;5034826;28;20467;-72
2023/12/14 09:02:59;;;;;;;44.57;15.73;;;;;;;4.99;100.00;100664.09;5049682;28;20227;-72
2023/12/14 09:05:26;;;;;;;40.73;16.10;;;;;;;4.99;100.00;100672.72;5047906;28;20231;-72
2023/12/14 09:07:55;;;;;;;37.90;15.97;;;;;;;5.00;100.00;100671.66;5034770;28;20215;-72
2023/12/14 09:10:22;;;;;;;39.47;16.27;;;;;;;5.00;100.00;100670.88;5048401;28;20212;-73
2023/12/14 09:12:48;;;;;;;35.30;15.17;;;;;;;4.99;100.00;100675.34;5029892;28;20196;-72
2023/12/14 09:15:16;;;;;;;38.33;15.93;;;;;;;5.00;100.00;100679.50;5049244;28;20187;-73
2023/12/14 09:17:43;;;;;;;41.00;16.60;;;;;;;5.00;100.00;100689.19;5042625;28;20322;-74
2023/12/14 09:20:11;;;;;;;37.93;16.00;;;;;;;5.00;100.00;100694.41;5015337;28;20196;-74
2023/12/14 09:22:37;;;;;;;39.47;15.87;;;;;;;5.00;100.00;100699.66;5033407;28;20206;-74
2023/12/14 09:25:04;;;;;;;42.60;17.13;;;;;;;4.98;100.00;100707.03;5032779;28;20196;-73
2023/12/14 09:27:31;;;;;;;39.20;15.87;;;;;;;4.97;100.00;100701.00;5031217;28;20279;-71
2023/12/14 09:29:57;;;;;;;44.77;16.90;;;;;;;4.99;100.00;100709.38;5033433;28;20254;-72
2023/12/14 09:32:25;;;;;;;42.00;16.33;;;;;;;4.99;100.00;100696.28;5032057;28;20204;-72
2023/12/14 09:34:51;;;;;;;48.17;17.20;;;;;;;5.00;100.00;100700.44;5027199;28;20196;-71
2023/12/14 09:37:19;;;;;;;45.27;16.60;;;;;;;5.01;100.00;100704.59;5032539;28;20454;-72
2023/12/14 09:39:45;;;;;;;35.10;15.43;;;;;;;5.01;100.00;100712.47;5028163;28;20275;-71
2023/12/14 09:42:12;;;;;;;40.97;16.43;;;;;;;5.02;100.00;100710.63;5028858;28;20207;-73
2023/12/14 09:44:39;;;;;;;35.00;14.63;;;;;;;5.01;100.00;100717.69;5026793;28;20200;-71
2023/12/14 09:47:06;;;;;;;44.17;16.60;;;;;;;5.02;100.00;100718.47;5028671;28;20195;-71
2023/12/14 09:49:36;;;;;;;37.90;15.40;;;;;;;4.99;100.00;100717.22;5007272;28;20231;-72
2023/12/14 09:52:03;;;;;;;36.40;15.03;;;;;;;5.01;100.00;100722.13;5027077;28;20192;-72
2023/12/14 09:54:29;;;;;;;45.07;16.43;;;;;;;5.02;100.00;100721.09;5027574;28;20682;-73
2023/12/14 09:56:56;;;;;;;38.83;16.73;;;;;;;5.00;100.00;100721.38;5026318;28;20204;-72
2023/12/14 09:59:22;;;;;;;39.17;16.17;;;;;;;5.03;100.00;100723.41;5025786;28;20301;-72
2023/12/14 10:01:49;;;;;;;45.03;17.93;;;;;;;5.02;100.00;100732.31;5021757;28;20202;-72
2023/12/14 10:04:16;;;;;;;43.53;18.47;;;;;;;5.04;100.00;100735.44;5025473;28;20537;-72
2023/12/14 10:06:45;;;;;;;46.37;18.37;;;;;;;5.02;100.00;100742.03;5012795;28;20195;-72
2023/12/14 10:09:15;;;;;;;41.77;18.23;;;;;;;5.02;100.00;100739.41;5032097;28;20212;-71
2023/12/14 10:11:42;;;;;;;41.60;18.00;;;;;;;5.02;100.00;100744.66;5021580;28;20579;-72
2023/12/14 10:14:22;;;;;;;47.90;17.70;;;;;;;5.01;100.00;100754.31;5007751;28;20214;-71
2023/12/14 10:16:50;;;;;;;40.73;17.07;;;;;;;5.00;100.00;100750.16;5028030;28;20199;-72
2023/12/14 10:19:18;;;;;;;36.13;15.67;;;;;;;4.99;100.00;100751.22;5024444;28;20225;-72
2023/12/14 10:21:47;;;;;;;54.23;19.17;;;;;;;4.98;100.00;100759.34;5009819;28;20200;-71
2023/12/14 10:24:13;;;;;;;45.03;18.10;;;;;;;5.00;100.00;100770.31;5031140;28;20196;-72
2023/12/14 10:26:40;;;;;;;47.73;19.43;;;;;;;4.99;100.00;100772.16;5026833;28;20253;-72
2023/12/14 10:29:07;;;;;;;49.13;18.50;;;;;;;4.99;100.00;100771.38;5010648;28;20247;-72
2023/12/14 10:31:37;;;;;;;43.60;17.67;;;;;;;4.98;100.00;100767.97;5027299;28;20220;-72
2023/12/14 10:34:03;;;;;;;44.60;17.53;;;;;;;4.97;100.00;100776.13;5010750;28;20239;-72
2023/12/14 10:36:31;;;;;;;34.80;16.30;;;;;;;4.98;100.00;100777.66;5033022;28;20196;-72
2023/12/14 10:39:00;;;;;;;39.63;16.47;;;;;;;4.99;100.00;100771.38;5024470;28;20211;-72
2023/12/14 10:41:28;;;;;;;43.10;16.50;;;;;;;5.00;100.00;100778.16;5027554;28;20196;-72
2023/12/14 10:43:57;;;;;;;34.60;14.53;;;;;;;5.01;100.00;100764.78;5021265;28;20258;-72
2023/12/14 10:46:24;;;;;;;35.53;16.07;;;;;;;5.03;100.00;100777.59;5028051;28;20192;-72
2023/12/14 10:48:51;;;;;;;34.77;14.90;;;;;;;5.04;100.00;100781.78;5025975;28;20598;-71
2023/12/14 10:51:20;;;;;;;38.57;16.70;;;;;;;5.05;100.00;100789.34;5008493;28;20416;-72
2023/12/14 10:53:48;;;;;;;44.23;17.90;;;;;;;5.06;100.00;100784.88;5024195;28;20204;-72
2023/12/14 10:56:17;;;;;;;34.20;14.97;;;;;;;5.07;100.00;100791.69;5026208;28;20207;-71
2023/12/14 10:58:48;;;;;;;39.60;17.43;;;;;;;5.08;100.00;100798.47;5024874;28;20226;-72
2023/12/14 11:01:15;;;;;;;35.60;16.00;;;;;;;5.08;100.00;100801.09;5024134;28;20774;-72
2023/12/14 11:03:43;;;;;;;38.03;15.97;;;;;;;5.10;100.00;100809.41;5023956;28;20286;-72
2023/12/14 11:06:31;;;;;;;35.17;15.60;;;;;;;5.11;100.00;100801.28;5026866;28;20662;-72
2023/12/14 11:09:00;;;;;;;34.63;15.80;;;;;;;5.12;100.00;100815.94;5029991;28;20572;-73